sensor_id;sensor_type;location;lat;lon;timestamp;temperature;humidity
1994;DHT22;998;49.906;10.908;2023-06-14T00:02:07;20.10;73.60
1994;DHT22;998;49.906;10.908;2023-06-14T00:04:35;19.90;74.70
1994;DHT22;998;49.906;10.908;2023-06-14T00:07:06;19.70;75.50
1994;DHT22;998;49.906;10.908;2023-06-14T00:09:34;19.50;76.40
1994;DHT22;998;49.906;10.908;2023-06-14T00:12:02;19.40;76.80
1994;DHT22;998;49.906;10.908;2023-06-14T00:14:30;19.40;76.80
1994;DHT22;998;49.906;10.908;2023-06-14T00:16:57;19.50;76.70
1994;DHT22;998;49.906;10.908;2023-06-14T00:19:24;19.40;76.90
1994;DHT22;998;49.906;10.908;2023-06-14T00:21:52;19.40;76.80
1994;DHT22;998;49.906;10.908;2023-06-14T00:24:21;19.40;77.20
1994;DHT22;998;49.906;10.908;2023-06-14T00:26:48;19.40;77.00
1994;DHT22;998;49.906;10.908;2023-06-14T00:29:15;19.30;77.20
1994;DHT22;998;49.906;10.908;2023-06-14T00:31:43;19.20;77.30
1994;DHT22;998;49.906;10.908;2023-06-14T00:34:10;19.10;77.70
1994;DHT22;998;49.906;10.908;2023-06-14T00:36:38;19.10;77.60
1994;DHT22;998;49.906;10.908;2023-06-14T00:39:05;19.20;77.70
1994;DHT22;998;49.906;10.908;2023-06-14T00:41:34;19.20;77.80
1994;DHT22;998;49.906;10.908;2023-06-14T00:44:01;19.10;78.00
1994;DHT22;998;49.906;10.908;2023-06-14T00:46:29;19.10;78.00
1994;DHT22;998;49.906;10.908;2023-06-14T00:48:56;19.00;78.50
1994;DHT22;998;49.906;10.908;2023-06-14T00:51:26;19.00;78.70
1994;DHT22;998;49.906;10.908;2023-06-14T00:53:53;19.00;78.90
1994;DHT22;998;49.906;10.908;2023-06-14T00:56:21;19.10;78.70
1994;DHT22;998;49.906;10.908;2023-06-14T00:58:50;19.10;78.60
1994;DHT22;998;49.906;10.908;2023-06-14T01:01:18;19.10;78.40
1994;DHT22;998;49.906;10.908;2023-06-14T01:03:46;19.10;78.50
1994;DHT22;998;49.906;10.908;2023-06-14T01:06:27;19.10;78.80
1994;DHT22;998;49.906;10.908;2023-06-14T01:09:02;19.10;79.10
1994;DHT22;998;49.906;10.908;2023-06-14T01:11:37;19.10;79.80
1994;DHT22;998;49.906;10.908;2023-06-14T01:14:06;19.00;80.30
1994;DHT22;998;49.906;10.908;2023-06-14T01:16:34;19.00;81.10
1994;DHT22;998;49.906;10.908;2023-06-14T01:19:06;19.10;81.50
1994;DHT22;998;49.906;10.908;2023-06-14T01:21:35;19.00;81.80
1994;DHT22;998;49.906;10.908;2023-06-14T01:24:09;19.00;82.50
1994;DHT22;998;49.906;10.908;2023-06-14T01:26:37;18.90;83.00
1994;DHT22;998;49.906;10.908;2023-06-14T01:29:07;18.40;99.90
1994;DHT22;998;49.906;10.908;2023-06-14T01:31:37;18.50;84.80
1994;DHT22;998;49.906;10.908;2023-06-14T01:34:07;18.60;85.20
1994;DHT22;998;49.906;10.908;2023-06-14T01:36:36;18.60;85.10
1994;DHT22;998;49.906;10.908;2023-06-14T01:39:10;18.60;85.10
1994;DHT22;998;49.906;10.908;2023-06-14T01:41:40;18.50;85.50
1994;DHT22;998;49.906;10.908;2023-06-14T01:44:07;18.40;86.30
1994;DHT22;998;49.906;10.908;2023-06-14T01:46:36;18.40;86.20
1994;DHT22;998;49.906;10.908;2023-06-14T01:49:03;18.20;86.80
1994;DHT22;998;49.906;10.908;2023-06-14T01:51:31;18.00;88.00
1994;DHT22;998;49.906;10.908;2023-06-14T01:53:58;18.10;87.80
1994;DHT22;998;49.906;10.908;2023-06-14T01:56:27;17.90;88.40
1994;DHT22;998;49.906;10.908;2023-06-14T01:58:55;17.80;89.70
1994;DHT22;998;49.906;10.908;2023-06-14T02:01:22;17.70;89.90
1994;DHT22;998;49.906;10.908;2023-06-14T02:03:50;17.80;89.60
1994;DHT22;998;49.906;10.908;2023-06-14T02:06:17;17.90;89.60
1994;DHT22;998;49.906;10.908;2023-06-14T02:08:44;17.90;90.00
1994;DHT22;998;49.906;10.908;2023-06-14T02:11:12;17.90;90.00
1994;DHT22;998;49.906;10.908;2023-06-14T02:13:40;17.80;90.20
1994;DHT22;998;49.906;10.908;2023-06-14T02:16:08;17.70;90.60
1994;DHT22;998;49.906;10.908;2023-06-14T02:18:36;17.60;90.90
1994;DHT22;998;49.906;10.908;2023-06-14T02:21:03;17.50;91.40
1994;DHT22;998;49.906;10.908;2023-06-14T02:23:31;17.30;91.90
1994;DHT22;998;49.906;10.908;2023-06-14T02:25:59;17.40;91.90
1994;DHT22;998;49.906;10.908;2023-06-14T02:28:26;17.30;92.00
1994;DHT22;998;49.906;10.908;2023-06-14T02:30:55;17.30;92.20
1994;DHT22;998;49.906;10.908;2023-06-14T02:33:22;17.30;92.10
1994;DHT22;998;49.906;10.908;2023-06-14T02:35:50;17.40;92.00
1994;DHT22;998;49.906;10.908;2023-06-14T02:38:18;17.30;92.10
1994;DHT22;998;49.906;10.908;2023-06-14T02:40:46;17.40;92.10
1994;DHT22;998;49.906;10.908;2023-06-14T02:43:14;17.30;92.30
1994;DHT22;998;49.906;10.908;2023-06-14T02:45:43;17.40;92.40
1994;DHT22;998;49.906;10.908;2023-06-14T02:48:12;17.40;92.40
1994;DHT22;998;49.906;10.908;2023-06-14T02:50:39;17.40;92.40
1994;DHT22;998;49.906;10.908;2023-06-14T02:53:06;17.40;92.70
1994;DHT22;998;49.906;10.908;2023-06-14T02:55:34;17.30;92.80
1994;DHT22;998;49.906;10.908;2023-06-14T02:58:05;17.30;93.00
1994;DHT22;998;49.906;10.908;2023-06-14T03:00:33;17.30;93.10
1994;DHT22;998;49.906;10.908;2023-06-14T03:03:01;17.30;93.30
1994;DHT22;998;49.906;10.908;2023-06-14T03:05:31;17.30;93.30
1994;DHT22;998;49.906;10.908;2023-06-14T03:07:59;17.30;93.30
1994;DHT22;998;49.906;10.908;2023-06-14T03:10:26;17.30;93.40
1994;DHT22;998;49.906;10.908;2023-06-14T03:12:54;17.30;93.70
1994;DHT22;998;49.906;10.908;2023-06-14T03:15:22;17.20;93.70
1994;DHT22;998;49.906;10.908;2023-06-14T03:17:50;17.00;94.10
1994;DHT22;998;49.906;10.908;2023-06-14T03:20:19;17.10;94.20
1994;DHT22;998;49.906;10.908;2023-06-14T03:22:48;17.00;94.40
1994;DHT22;998;49.906;10.908;2023-06-14T03:25:16;17.00;94.70
1994;DHT22;998;49.906;10.908;2023-06-14T03:27:44;17.00;94.60
1994;DHT22;998;49.906;10.908;2023-06-14T03:30:12;17.10;94.40
1994;DHT22;998;49.906;10.908;2023-06-14T03:32:39;17.00;94.60
1994;DHT22;998;49.906;10.908;2023-06-14T03:35:07;17.10;94.70
1994;DHT22;998;49.906;10.908;2023-06-14T03:37:36;16.90;95.10
1994;DHT22;998;49.906;10.908;2023-06-14T03:40:05;16.90;95.10
1994;DHT22;998;49.906;10.908;2023-06-14T03:42:33;16.90;95.20
1994;DHT22;998;49.906;10.908;2023-06-14T03:45:00;17.00;95.30
1994;DHT22;998;49.906;10.908;2023-06-14T03:47:28;17.10;95.30
1994;DHT22;998;49.906;10.908;2023-06-14T03:49:55;17.00;95.20
1994;DHT22;998;49.906;10.908;2023-06-14T03:52:22;17.00;95.50
1994;DHT22;998;49.906;10.908;2023-06-14T03:54:50;17.00;95.70
1994;DHT22;998;49.906;10.908;2023-06-14T03:57:20;16.90;95.90
1994;DHT22;998;49.906;10.908;2023-06-14T03:59:47;16.90;96.00
1994;DHT22;998;49.906;10.908;2023-06-14T04:02:15;16.90;96.40
1994;DHT22;998;49.906;10.908;2023-06-14T04:04:43;16.90;96.50
1994;DHT22;998;49.906;10.908;2023-06-14T04:07:11;16.80;96.80
1994;DHT22;998;49.906;10.908;2023-06-14T04:09:38;16.90;96.90
1994;DHT22;998;49.906;10.908;2023-06-14T04:12:07;16.80;96.80
1994;DHT22;998;49.906;10.908;2023-06-14T04:14:36;16.90;97.00
1994;DHT22;998;49.906;10.908;2023-06-14T04:17:04;16.80;97.10
1994;DHT22;998;49.906;10.908;2023-06-14T04:19:31;16.90;97.40
1994;DHT22;998;49.906;10.908;2023-06-14T04:21:59;16.90;97.40
1994;DHT22;998;49.906;10.908;2023-06-14T04:24:28;16.90;97.50
1994;DHT22;998;49.906;10.908;2023-06-14T04:26:58;16.90;97.60
1994;DHT22;998;49.906;10.908;2023-06-14T04:29:27;16.90;97.90
1994;DHT22;998;49.906;10.908;2023-06-14T04:31:56;17.10;97.60
1994;DHT22;998;49.906;10.908;2023-06-14T04:34:26;17.10;97.60
1994;DHT22;998;49.906;10.908;2023-06-14T04:36:55;17.10;97.70
1994;DHT22;998;49.906;10.908;2023-06-14T04:39:23;17.10;97.80
1994;DHT22;998;49.906;10.908;2023-06-14T04:41:51;17.00;98.20
1994;DHT22;998;49.906;10.908;2023-06-14T04:44:23;17.00;98.50
1994;DHT22;998;49.906;10.908;2023-06-14T04:46:57;17.00;98.50
1994;DHT22;998;49.906;10.908;2023-06-14T04:49:25;17.10;98.60
1994;DHT22;998;49.906;10.908;2023-06-14T04:51:53;17.20;98.40
1994;DHT22;998;49.906;10.908;2023-06-14T04:54:23;17.20;98.60
1994;DHT22;998;49.906;10.908;2023-06-14T04:56:51;17.20;98.60
1994;DHT22;998;49.906;10.908;2023-06-14T04:59:21;17.20;98.70
1994;DHT22;998;49.906;10.908;2023-06-14T05:01:49;17.20;99.10
1994;DHT22;998;49.906;10.908;2023-06-14T05:04:19;17.20;98.90
1994;DHT22;998;49.906;10.908;2023-06-14T05:06:47;17.20;99.20
1994;DHT22;998;49.906;10.908;2023-06-14T05:09:15;17.20;99.30
1994;DHT22;998;49.906;10.908;2023-06-14T05:11:42;17.30;99.40
1994;DHT22;998;49.906;10.908;2023-06-14T05:14:11;17.30;99.60
1994;DHT22;998;49.906;10.908;2023-06-14T05:16:38;17.30;99.60
1994;DHT22;998;49.906;10.908;2023-06-14T05:19:06;17.30;99.80
1994;DHT22;998;49.906;10.908;2023-06-14T05:21:36;17.30;99.70
1994;DHT22;998;49.906;10.908;2023-06-14T05:24:04;17.40;99.60
1994;DHT22;998;49.906;10.908;2023-06-14T05:26:31;17.40;99.80
1994;DHT22;998;49.906;10.908;2023-06-14T05:28:59;17.30;99.80
1994;DHT22;998;49.906;10.908;2023-06-14T05:31:27;17.40;99.70
1994;DHT22;998;49.906;10.908;2023-06-14T05:33:55;17.40;99.90
1994;DHT22;998;49.906;10.908;2023-06-14T05:36:22;17.30;99.90
1994;DHT22;998;49.906;10.908;2023-06-14T05:38:52;17.40;99.90
1994;DHT22;998;49.906;10.908;2023-06-14T05:41:23;17.40;99.90
1994;DHT22;998;49.906;10.908;2023-06-14T05:43:51;17.50;99.90
1994;DHT22;998;49.906;10.908;2023-06-14T05:46:19;17.50;99.90
1994;DHT22;998;49.906;10.908;2023-06-14T05:48:50;17.50;99.90
1994;DHT22;998;49.906;10.908;2023-06-14T05:51:18;17.50;99.90
1994;DHT22;998;49.906;10.908;2023-06-14T05:53:45;17.60;99.90
1994;DHT22;998;49.906;10.908;2023-06-14T05:56:15;17.60;99.90
1994;DHT22;998;49.906;10.908;2023-06-14T05:58:43;17.70;99.90
1994;DHT22;998;49.906;10.908;2023-06-14T06:01:11;17.70;99.90
1994;DHT22;998;49.906;10.908;2023-06-14T06:03:39;17.70;99.90
1994;DHT22;998;49.906;10.908;2023-06-14T06:06:07;17.70;99.90
1994;DHT22;998;49.906;10.908;2023-06-14T06:08:34;17.60;99.90
1994;DHT22;998;49.906;10.908;2023-06-14T06:11:02;17.60;99.90
1994;DHT22;998;49.906;10.908;2023-06-14T06:13:31;17.80;99.90
1994;DHT22;998;49.906;10.908;2023-06-14T06:15:58;17.80;99.90
1994;DHT22;998;49.906;10.908;2023-06-14T06:18:25;17.80;99.90
1994;DHT22;998;49.906;10.908;2023-06-14T06:20:53;17.90;99.90
1994;DHT22;998;49.906;10.908;2023-06-14T06:23:21;17.90;99.90
1994;DHT22;998;49.906;10.908;2023-06-14T06:25:48;17.90;99.90
1994;DHT22;998;49.906;10.908;2023-06-14T06:28:16;18.00;99.90
1994;DHT22;998;49.906;10.908;2023-06-14T06:30:45;18.00;99.90
1994;DHT22;998;49.906;10.908;2023-06-14T06:33:12;18.00;99.90
1994;DHT22;998;49.906;10.908;2023-06-14T06:35:40;19.20;99.90
1994;DHT22;998;49.906;10.908;2023-06-14T06:38:07;18.00;99.90
1994;DHT22;998;49.906;10.908;2023-06-14T06:40:35;18.10;99.90
1994;DHT22;998;49.906;10.908;2023-06-14T06:43:03;18.10;99.90
1994;DHT22;998;49.906;10.908;2023-06-14T06:45:30;18.20;99.70
1994;DHT22;998;49.906;10.908;2023-06-14T06:48:00;18.20;99.50
1994;DHT22;998;49.906;10.908;2023-06-14T06:50:27;18.30;99.60
1994;DHT22;998;49.906;10.908;2023-06-14T06:52:55;18.30;99.50
1994;DHT22;998;49.906;10.908;2023-06-14T06:55:23;18.40;99.40
1994;DHT22;998;49.906;10.908;2023-06-14T06:57:50;18.40;99.30
1994;DHT22;998;49.906;10.908;2023-06-14T07:00:18;18.40;99.30
1994;DHT22;998;49.906;10.908;2023-06-14T07:02:46;18.50;99.40
1994;DHT22;998;49.906;10.908;2023-06-14T07:05:15;18.50;98.70
1994;DHT22;998;49.906;10.908;2023-06-14T07:07:42;18.60;98.50
1994;DHT22;998;49.906;10.908;2023-06-14T07:10:10;18.60;98.40
1994;DHT22;998;49.906;10.908;2023-06-14T07:12:37;18.50;98.10
1994;DHT22;998;49.906;10.908;2023-06-14T07:15:06;18.60;98.40
1994;DHT22;998;49.906;10.908;2023-06-14T07:17:34;18.70;98.10
1994;DHT22;998;49.906;10.908;2023-06-14T07:20:02;18.70;98.20
1994;DHT22;998;49.906;10.908;2023-06-14T07:22:35;18.80;97.50
1994;DHT22;998;49.906;10.908;2023-06-14T07:25:03;18.80;97.20
1994;DHT22;998;49.906;10.908;2023-06-14T07:27:30;18.80;96.50
1994;DHT22;998;49.906;10.908;2023-06-14T07:29:57;18.80;96.20
1994;DHT22;998;49.906;10.908;2023-06-14T07:32:25;18.90;95.80
1994;DHT22;998;49.906;10.908;2023-06-14T07:34:52;18.90;94.50
1994;DHT22;998;49.906;10.908;2023-06-14T07:37:19;19.00;95.40
1994;DHT22;998;49.906;10.908;2023-06-14T07:39:48;19.30;94.80
1994;DHT22;998;49.906;10.908;2023-06-14T07:42:15;19.10;94.70
1994;DHT22;998;49.906;10.908;2023-06-14T07:44:43;19.10;93.80
1994;DHT22;998;49.906;10.908;2023-06-14T07:47:10;19.10;93.60
1994;DHT22;998;49.906;10.908;2023-06-14T07:49:38;19.10;92.90
1994;DHT22;998;49.906;10.908;2023-06-14T07:52:06;19.10;92.90
1994;DHT22;998;49.906;10.908;2023-06-14T07:54:33;19.20;93.30
1994;DHT22;998;49.906;10.908;2023-06-14T07:57:02;19.20;92.50
1994;DHT22;998;49.906;10.908;2023-06-14T07:59:30;19.20;92.50
1994;DHT22;998;49.906;10.908;2023-06-14T08:01:57;19.20;92.10
1994;DHT22;998;49.906;10.908;2023-06-14T08:04:25;19.20;92.20
1994;DHT22;998;49.906;10.908;2023-06-14T08:06:52;19.30;92.20
1994;DHT22;998;49.906;10.908;2023-06-14T08:09:19;19.30;91.70
1994;DHT22;998;49.906;10.908;2023-06-14T08:11:47;19.30;91.00
1994;DHT22;998;49.906;10.908;2023-06-14T08:14:15;19.30;91.30
1994;DHT22;998;49.906;10.908;2023-06-14T08:16:43;19.40;91.30
1994;DHT22;998;49.906;10.908;2023-06-14T08:19:10;19.50;91.30
1994;DHT22;998;49.906;10.908;2023-06-14T08:21:38;19.50;91.70
1994;DHT22;998;49.906;10.908;2023-06-14T08:24:06;19.50;91.20
1994;DHT22;998;49.906;10.908;2023-06-14T08:26:33;19.60;90.90
1994;DHT22;998;49.906;10.908;2023-06-14T08:29:02;19.60;91.10
1994;DHT22;998;49.906;10.908;2023-06-14T08:31:31;19.60;90.80
1994;DHT22;998;49.906;10.908;2023-06-14T08:33:58;19.70;91.00
1994;DHT22;998;49.906;10.908;2023-06-14T08:36:26;19.70;90.70
1994;DHT22;998;49.906;10.908;2023-06-14T08:38:53;19.70;90.90
1994;DHT22;998;49.906;10.908;2023-06-14T08:41:22;19.70;91.10
1994;DHT22;998;49.906;10.908;2023-06-14T08:43:50;19.80;90.60
1994;DHT22;998;49.906;10.908;2023-06-14T08:46:18;19.90;89.50
1994;DHT22;998;49.906;10.908;2023-06-14T08:48:49;20.00;89.40
1994;DHT22;998;49.906;10.908;2023-06-14T08:51:18;20.00;88.80
1994;DHT22;998;49.906;10.908;2023-06-14T08:53:51;20.00;89.60
1994;DHT22;998;49.906;10.908;2023-06-14T08:56:20;20.10;89.00
1994;DHT22;998;49.906;10.908;2023-06-14T08:58:49;20.10;88.80
1994;DHT22;998;49.906;10.908;2023-06-14T09:01:16;20.10;88.10
1994;DHT22;998;49.906;10.908;2023-06-14T09:03:45;20.20;87.90
1994;DHT22;998;49.906;10.908;2023-06-14T09:06:15;20.20;88.70
1994;DHT22;998;49.906;10.908;2023-06-14T09:08:45;20.30;87.00
1994;DHT22;998;49.906;10.908;2023-06-14T09:11:14;20.40;87.10
1994;DHT22;998;49.906;10.908;2023-06-14T09:13:42;20.50;87.80
1994;DHT22;998;49.906;10.908;2023-06-14T09:16:10;20.50;87.00
1994;DHT22;998;49.906;10.908;2023-06-14T09:18:38;20.60;87.60
1994;DHT22;998;49.906;10.908;2023-06-14T09:21:06;20.50;85.50
1994;DHT22;998;49.906;10.908;2023-06-14T09:23:38;20.60;85.60
1994;DHT22;998;49.906;10.908;2023-06-14T09:26:09;20.60;86.40
1994;DHT22;998;49.906;10.908;2023-06-14T09:28:41;20.60;86.50
1994;DHT22;998;49.906;10.908;2023-06-14T09:31:10;20.70;86.40
1994;DHT22;998;49.906;10.908;2023-06-14T09:33:38;20.80;86.50
1994;DHT22;998;49.906;10.908;2023-06-14T09:36:10;20.80;86.90
1994;DHT22;998;49.906;10.908;2023-06-14T09:38:40;20.90;85.40
1994;DHT22;998;49.906;10.908;2023-06-14T09:41:08;20.90;84.10
1994;DHT22;998;49.906;10.908;2023-06-14T09:43:35;20.90;82.60
1994;DHT22;998;49.906;10.908;2023-06-14T09:46:05;21.00;83.20
1994;DHT22;998;49.906;10.908;2023-06-14T09:48:33;21.00;83.30
1994;DHT22;998;49.906;10.908;2023-06-14T09:51:01;21.10;83.10
1994;DHT22;998;49.906;10.908;2023-06-14T09:53:30;21.10;83.10
1994;DHT22;998;49.906;10.908;2023-06-14T09:56:01;21.20;82.70
1994;DHT22;998;49.906;10.908;2023-06-14T09:58:31;21.30;80.50
1994;DHT22;998;49.906;10.908;2023-06-14T10:01:01;21.20;80.70
1994;DHT22;998;49.906;10.908;2023-06-14T10:03:29;21.30;81.50
1994;DHT22;998;49.906;10.908;2023-06-14T10:05:59;21.20;81.50
1994;DHT22;998;49.906;10.908;2023-06-14T10:08:31;21.40;81.70
1994;DHT22;998;49.906;10.908;2023-06-14T10:11:03;21.50;80.40
1994;DHT22;998;49.906;10.908;2023-06-14T10:13:32;21.60;80.20
1994;DHT22;998;49.906;10.908;2023-06-14T10:16:07;21.70;79.90
1994;DHT22;998;49.906;10.908;2023-06-14T10:18:42;21.80;79.80
1994;DHT22;998;49.906;10.908;2023-06-14T10:21:20;21.90;77.90
1994;DHT22;998;49.906;10.908;2023-06-14T10:23:50;21.80;72.60
1994;DHT22;998;49.906;10.908;2023-06-14T10:26:20;21.80;75.10
1994;DHT22;998;49.906;10.908;2023-06-14T10:28:58;21.80;73.00
1994;DHT22;998;49.906;10.908;2023-06-14T10:31:43;21.70;73.00
1994;DHT22;998;49.906;10.908;2023-06-14T10:34:11;21.70;76.10
1994;DHT22;998;49.906;10.908;2023-06-14T10:36:43;22.50;77.10
1994;DHT22;998;49.906;10.908;2023-06-14T10:39:15;22.00;76.50
1994;DHT22;998;49.906;10.908;2023-06-14T10:41:53;22.20;75.00
1994;DHT22;998;49.906;10.908;2023-06-14T10:44:39;22.30;74.20
1994;DHT22;998;49.906;10.908;2023-06-14T10:47:08;22.40;74.20
1994;DHT22;998;49.906;10.908;2023-06-14T10:49:38;22.40;74.90
1994;DHT22;998;49.906;10.908;2023-06-14T10:52:08;22.50;74.20
1994;DHT22;998;49.906;10.908;2023-06-14T10:55:07;22.70;74.00
1994;DHT22;998;49.906;10.908;2023-06-14T10:57:39;22.80;73.90
1994;DHT22;998;49.906;10.908;2023-06-14T11:00:09;22.80;73.40
1994;DHT22;998;49.906;10.908;2023-06-14T11:03:12;22.60;72.70
1994;DHT22;998;49.906;10.908;2023-06-14T11:05:51;22.60;72.70
1994;DHT22;998;49.906;10.908;2023-06-14T11:11:42;22.40;72.10
1994;DHT22;998;49.906;10.908;2023-06-14T11:14:11;22.30;71.70
1994;DHT22;998;49.906;10.908;2023-06-14T11:16:39;22.30;72.10
1994;DHT22;998;49.906;10.908;2023-06-14T11:19:06;22.40;72.90
1994;DHT22;998;49.906;10.908;2023-06-14T11:21:34;22.50;72.80
1994;DHT22;998;49.906;10.908;2023-06-14T11:24:01;22.90;71.90
1994;DHT22;998;49.906;10.908;2023-06-14T11:26:30;23.00;71.00
1994;DHT22;998;49.906;10.908;2023-06-14T11:29:01;22.90;70.90
1994;DHT22;998;49.906;10.908;2023-06-14T11:31:30;22.90;71.20
1994;DHT22;998;49.906;10.908;2023-06-14T11:33:58;22.80;71.30
1994;DHT22;998;49.906;10.908;2023-06-14T11:36:27;22.70;71.20
1994;DHT22;998;49.906;10.908;2023-06-14T11:38:59;22.80;72.00
1994;DHT22;998;49.906;10.908;2023-06-14T11:41:32;23.00;73.40
1994;DHT22;998;49.906;10.908;2023-06-14T11:44:01;23.20;72.20
1994;DHT22;998;49.906;10.908;2023-06-14T11:46:30;23.50;70.80
1994;DHT22;998;49.906;10.908;2023-06-14T11:48:57;23.70;69.20
1994;DHT22;998;49.906;10.908;2023-06-14T11:51:25;23.70;68.90
1994;DHT22;998;49.906;10.908;2023-06-14T11:53:53;23.70;68.10
1994;DHT22;998;49.906;10.908;2023-06-14T11:56:21;23.70;66.70
1994;DHT22;998;49.906;10.908;2023-06-14T11:58:48;23.60;64.80
1994;DHT22;998;49.906;10.908;2023-06-14T12:01:16;23.60;65.60
1994;DHT22;998;49.906;10.908;2023-06-14T12:03:49;23.70;67.90
1994;DHT22;998;49.906;10.908;2023-06-14T12:06:24;23.90;67.10
1994;DHT22;998;49.906;10.908;2023-06-14T12:08:55;24.00;66.80
1994;DHT22;998;49.906;10.908;2023-06-14T12:11:23;23.90;66.10
1994;DHT22;998;49.906;10.908;2023-06-14T12:13:50;23.80;65.80
1994;DHT22;998;49.906;10.908;2023-06-14T12:16:18;23.80;65.70
1994;DHT22;998;49.906;10.908;2023-06-14T12:18:45;23.90;66.10
1994;DHT22;998;49.906;10.908;2023-06-14T12:21:15;23.80;64.00
1994;DHT22;998;49.906;10.908;2023-06-14T12:23:43;23.90;65.60
1994;DHT22;998;49.906;10.908;2023-06-14T12:26:13;23.70;63.90
1994;DHT22;998;49.906;10.908;2023-06-14T12:28:41;23.70;64.90
1994;DHT22;998;49.906;10.908;2023-06-14T12:31:10;23.60;66.00
1994;DHT22;998;49.906;10.908;2023-06-14T12:33:38;23.60;65.90
1994;DHT22;998;49.906;10.908;2023-06-14T12:36:07;23.80;66.20
1994;DHT22;998;49.906;10.908;2023-06-14T12:38:36;23.40;66.40
1994;DHT22;998;49.906;10.908;2023-06-14T12:41:04;23.40;66.00
1994;DHT22;998;49.906;10.908;2023-06-14T12:43:31;23.30;65.80
1994;DHT22;998;49.906;10.908;2023-06-14T12:45:59;23.30;66.00
1994;DHT22;998;49.906;10.908;2023-06-14T12:48:26;23.30;66.30
1994;DHT22;998;49.906;10.908;2023-06-14T12:50:55;23.40;65.70
1994;DHT22;998;49.906;10.908;2023-06-14T12:53:23;23.30;64.70
1994;DHT22;998;49.906;10.908;2023-06-14T12:55:52;23.40;65.80
1994;DHT22;998;49.906;10.908;2023-06-14T12:58:19;24.00;66.90
1994;DHT22;998;49.906;10.908;2023-06-14T13:00:46;24.60;62.90
1994;DHT22;998;49.906;10.908;2023-06-14T13:03:14;25.20;63.10
1994;DHT22;998;49.906;10.908;2023-06-14T13:05:41;25.50;60.20
1994;DHT22;998;49.906;10.908;2023-06-14T13:08:09;25.60;61.20
1994;DHT22;998;49.906;10.908;2023-06-14T13:10:36;25.10;57.60
1994;DHT22;998;49.906;10.908;2023-06-14T13:13:05;24.50;58.80
1994;DHT22;998;49.906;10.908;2023-06-14T13:15:34;24.70;58.80
1994;DHT22;998;49.906;10.908;2023-06-14T13:18:01;24.60;59.10
1994;DHT22;998;49.906;10.908;2023-06-14T13:20:29;24.40;59.70
1994;DHT22;998;49.906;10.908;2023-06-14T13:22:56;24.30;60.00
1994;DHT22;998;49.906;10.908;2023-06-14T13:25:24;24.20;60.00
1994;DHT22;998;49.906;10.908;2023-06-14T13:27:51;24.10;61.10
1994;DHT22;998;49.906;10.908;2023-06-14T13:30:20;24.00;61.20
1994;DHT22;998;49.906;10.908;2023-06-14T13:32:48;23.90;61.80
1994;DHT22;998;49.906;10.908;2023-06-14T13:35:17;23.80;61.70
1994;DHT22;998;49.906;10.908;2023-06-14T13:37:45;23.80;62.00
1994;DHT22;998;49.906;10.908;2023-06-14T13:40:13;23.70;61.70
1994;DHT22;998;49.906;10.908;2023-06-14T13:42:40;23.70;62.30
1994;DHT22;998;49.906;10.908;2023-06-14T13:45:09;23.70;62.30
1994;DHT22;998;49.906;10.908;2023-06-14T13:47:39;23.60;62.30
1994;DHT22;998;49.906;10.908;2023-06-14T13:50:07;23.60;62.40
1994;DHT22;998;49.906;10.908;2023-06-14T13:52:34;23.70;62.60
1994;DHT22;998;49.906;10.908;2023-06-14T13:55:02;23.70;62.30
1994;DHT22;998;49.906;10.908;2023-06-14T13:57:30;23.70;62.60
1994;DHT22;998;49.906;10.908;2023-06-14T13:59:58;23.80;63.00
1994;DHT22;998;49.906;10.908;2023-06-14T14:02:27;24.40;63.00
1994;DHT22;998;49.906;10.908;2023-06-14T14:04:56;25.10;61.20
1994;DHT22;998;49.906;10.908;2023-06-14T14:07:23;25.70;60.20
1994;DHT22;998;49.906;10.908;2023-06-14T14:09:51;26.20;58.70
1994;DHT22;998;49.906;10.908;2023-06-14T14:12:19;26.50;58.00
1994;DHT22;998;49.906;10.908;2023-06-14T14:14:46;26.70;58.50
1994;DHT22;998;49.906;10.908;2023-06-14T14:17:13;27.00;57.20
1994;DHT22;998;49.906;10.908;2023-06-14T14:19:41;26.70;55.70
1994;DHT22;998;49.906;10.908;2023-06-14T14:22:10;26.30;56.80
1994;DHT22;998;49.906;10.908;2023-06-14T14:24:37;25.70;57.30
1994;DHT22;998;49.906;10.908;2023-06-14T14:27:05;25.20;58.20
1994;DHT22;998;49.906;10.908;2023-06-14T14:29:33;24.90;58.80
1994;DHT22;998;49.906;10.908;2023-06-14T14:32:01;24.80;59.20
1994;DHT22;998;49.906;10.908;2023-06-14T14:34:29;24.60;59.70
1994;DHT22;998;49.906;10.908;2023-06-14T14:36:56;24.50;60.20
1994;DHT22;998;49.906;10.908;2023-06-14T14:39:25;24.40;60.40
1994;DHT22;998;49.906;10.908;2023-06-14T14:41:52;24.40;61.00
1994;DHT22;998;49.906;10.908;2023-06-14T14:44:20;24.30;61.30
1994;DHT22;998;49.906;10.908;2023-06-14T14:46:47;24.20;61.50
1994;DHT22;998;49.906;10.908;2023-06-14T14:49:14;24.20;62.10
1994;DHT22;998;49.906;10.908;2023-06-14T14:51:42;24.10;62.30
1994;DHT22;998;49.906;10.908;2023-06-14T14:54:10;24.10;62.10
1994;DHT22;998;49.906;10.908;2023-06-14T14:56:39;24.20;61.40
1994;DHT22;998;49.906;10.908;2023-06-14T14:59:06;24.10;61.70
1994;DHT22;998;49.906;10.908;2023-06-14T15:01:33;24.20;62.10
1994;DHT22;998;49.906;10.908;2023-06-14T15:04:01;24.30;61.80
1994;DHT22;998;49.906;10.908;2023-06-14T15:06:28;24.50;62.20
1994;DHT22;998;49.906;10.908;2023-06-14T15:08:56;24.60;63.10
1994;DHT22;998;49.906;10.908;2023-06-14T15:11:23;24.80;62.40
1994;DHT22;998;49.906;10.908;2023-06-14T15:13:53;25.00;61.30
1994;DHT22;998;49.906;10.908;2023-06-14T15:16:20;24.90;60.50
1994;DHT22;998;49.906;10.908;2023-06-14T15:18:49;24.60;60.60
1994;DHT22;998;49.906;10.908;2023-06-14T15:21:16;24.50;61.00
1994;DHT22;998;49.906;10.908;2023-06-14T15:23:45;24.40;61.80
1994;DHT22;998;49.906;10.908;2023-06-14T15:26:12;24.40;62.50
1994;DHT22;998;49.906;10.908;2023-06-14T15:28:40;24.60;62.80
1994;DHT22;998;49.906;10.908;2023-06-14T15:31:09;24.80;62.40
1994;DHT22;998;49.906;10.908;2023-06-14T15:33:36;24.90;61.30
1994;DHT22;998;49.906;10.908;2023-06-14T15:36:04;25.10;61.20
1994;DHT22;998;49.906;10.908;2023-06-14T15:38:31;25.40;61.60
1994;DHT22;998;49.906;10.908;2023-06-14T15:40:59;25.50;59.30
1994;DHT22;998;49.906;10.908;2023-06-14T15:43:27;25.40;58.40
1994;DHT22;998;49.906;10.908;2023-06-14T15:45:54;25.30;59.10
1994;DHT22;998;49.906;10.908;2023-06-14T15:48:23;25.10;59.30
1994;DHT22;998;49.906;10.908;2023-06-14T15:50:50;24.80;59.40
1994;DHT22;998;49.906;10.908;2023-06-14T15:53:18;24.70;59.80
1994;DHT22;998;49.906;10.908;2023-06-14T15:55:46;24.70;60.00
1994;DHT22;998;49.906;10.908;2023-06-14T15:58:13;24.60;60.50
1994;DHT22;998;49.906;10.908;2023-06-14T16:00:41;24.60;61.20
1994;DHT22;998;49.906;10.908;2023-06-14T16:03:08;24.60;63.00
1994;DHT22;998;49.906;10.908;2023-06-14T16:05:37;24.60;62.90
1994;DHT22;998;49.906;10.908;2023-06-14T16:08:05;24.60;63.10
1994;DHT22;998;49.906;10.908;2023-06-14T16:10:33;24.60;62.90
1994;DHT22;998;49.906;10.908;2023-06-14T16:13:00;24.80;63.10
1994;DHT22;998;49.906;10.908;2023-06-14T16:15:28;24.90;61.80